Airfield :
LOGIN :

Register | Disclaimer

   EN    FR    IT 

 










Legend :    VFR   Marginal VFR   IFR   Intensive IFR   Very Intensive IFR
Visi :
Ceiling :
>= 8 km
>= 3000ft
5 to 8 km
1000 to 3000 ft
1500m to 5 km
500 to 1000 ft
800 to 1500m
200 to 500 ft
< 800m
< 200 ft
Symbols :   Thunderstorms  Fog  Heavy snow  Heavy precipitations  Wind > 20 kt
SIGMETs :     Misc.  Thunderstorms  Icing  Turbulence  Mountain Waves  Volcanic Ashes






- Airport Elevation : 63 ft
- IATA code : BZM


EHWO - Woensdrecht Airbase

CURRENT METAR :
  • 171110Z AUTO 26010KT 220V350 9999 FEW020 BKN091 OVC100 08/04 Q1012 BLU TEMPO 35010G20KT 4000 SHRAGS FEW015 SCT025CB

EXPIRED METARs :
  • 171059Z AUTO 25010KT 210V280 9999 SCT018 BKN023 OVC096 09/04 Q1012 WHT TEMPO 35010G20KT 4000 SHRAGS FEW015 SCT025CB
  • 171038Z AUTO 24009KT 220V280 9999 FEW063 SCT069 BKN082 08/04 Q1012 BLU TEMPO 35010G20KT 4000 SHRAGS FEW015 SCT025CB
  • 171025Z AUTO 27003KT 230V330 9999 FEW012 FEW020CB BKN044 OVC051 07/02 Q1012 BLU TEMPO 36010G20KT 3000 SHRAGS TSRAGS FEW015 SCT025CB
  • 170957Z AUTO 28013KT 240V340 9999 FEW015CB BKN025 OVC032 06/03 Q1012 BLU TEMPO 36010G20KT 3000 SHRAGS TSRAGS FEW015 SCT025CB
  • 170955Z AUTO 29013KT 250V340 9999 FEW015CB BKN020 BKN024 06/03 Q1012 REDZ WHT TEMPO 36010G20KT 3000 SHRAGS TSRAGS FEW015 SCT025CB
  • 170942Z AUTO 29013G25KT 240V010 9999 -RADZ FEW015CB SCT024 BKN028 06/02 Q1012 WHT TEMPO 36010G20KT 3000 SHRAGS TSRAGS FEW015 SCT025CB
  • 170925Z AUTO 30005KT 240V050 9999 FEW021CB OVC056 09/04 Q1012 BLU TEMPO 36010G20KT 3000 SHRAGS TSRAGS FEW015 SCT025CB
  • 170913Z AUTO VRB02KT 9999 SCT055 BKN069 OVC074 09/04 Q1012 BLU TEMPO 36010G20KT 3000 SHRAGS TSRAGS FEW015 SCT025CB
  • 170855Z AUTO 03004KT 300V080 9999 FEW015CB BKN073 OVC079 08/04 Q1012 BLU TEMPO 36010G20KT 3000 SHRAGS TSRAGS FEW015 SCT025CB
  • 170836Z AUTO 03007KT 320V080 9999 FEW015CB BKN058 OVC064 07/04 Q1012 BLU TEMPO 36010G20KT 3000 SHRAGS TSRAGS FEW015 SCT025CB
  • 170825Z AUTO 36005KT 300V060 9999 -RA FEW015CB SCT032 BKN044 07/04 Q1012 BLU TEMPO 36010G20KT 3000 SHRAGS TSRAGS FEW015 SCT025CB
  • 170804Z AUTO 01008KT 320V060 9999 FEW015CB BKN028 BKN031 06/03 Q1012 BLU TEMPO 36010G20KT 3000 SHRAGS TSRAGS FEW015 SCT025CB
  • 170758Z AUTO 36009KT 310V060 9999 FEW015CB SCT021 BKN030 07/03 Q1012 WHT TEMPO 36010G20KT 3000 SHRAGS TSRAGS FEW015 SCT025CB
  • 170725Z AUTO 30007KT 220V350 9999 BKN026 BKN035 OVC110 08/04 Q1012 BLU TEMPO 32010G20KT 4000 SHRAGS FEW015 SCT025CB
  • 170704Z AUTO 28004KT 250V330 9999 BKN027 BKN031 BKN140 08/04 Q1012 BLU TEMPO 32010G20KT 4500 SHRA FEW015 SCT025CB
  • 170658Z AUTO 28004KT 240V340 9999 BKN028 BKN140 08/04 Q1012 BLU TEMPO 32010G20KT 4500 SHRA FEW015 SCT025CB
  • 170655Z AUTO 28004KT 240V340 9999 FEW028 OVC140 08/05 Q1012 BLU
  • 170625Z AUTO 28004KT 9999 OVC150 07/04 Q1012 BLU

TAF TAF EHWO
Valid from the 17 at 09:00 until the 17 at 21:00 UTC


170853Z 1709/1721 35006KT 9999 SCT025 SCT045
TEMPO 1709/1721 33010G20KT 4500 -SHRAGS FEW015 SCT020CB
PROB40
TEMPO 1709/1720 34015G30KT 2000 SHRAGS TSRA FEW010 SCT015 SCT018CB



MET'MAP, your aeronautical weather chart ! - Copyright ORBIFLY December 2007 - Disclaimer

ORBIFLY MET'MAP TEAM :

Programming & Development : Alexandra Zaïnal
Original concept : Baudouin d'Aumeries
Technical & hardware support : Manuel Goepfert
Assistance : Marc-Olivier Méhu




SOURCES & CREDITS :

   NOAA